createdAt,value
2019-04-11T00:02:25.458Z,12.05
2019-04-11T00:04:52.699Z,11.53
2019-04-11T00:07:19.003Z,12.18
2019-04-11T00:09:47.795Z,11.95
2019-04-11T00:12:19.318Z,12.18
2019-04-11T00:14:48.354Z,12.90
2019-04-11T00:17:17.430Z,11.90
2019-04-11T00:19:53.742Z,11.68
2019-04-11T00:22:19.467Z,12.55
2019-04-11T00:24:53.207Z,12.03
2019-04-11T00:27:25.290Z,11.68
2019-04-11T00:29:57.868Z,12.25
2019-04-11T00:32:25.332Z,12.28
2019-04-11T00:34:51.587Z,11.57
2019-04-11T00:37:19.010Z,12.60
2019-04-11T00:39:47.843Z,12.43
2019-04-11T00:42:14.593Z,11.73
2019-04-11T00:44:47.996Z,11.40
2019-04-11T00:47:13.050Z,12.00
2019-04-11T00:49:44.103Z,11.43
2019-04-11T00:52:16.255Z,12.93
2019-04-11T00:54:44.330Z,11.95
2019-04-11T00:57:10.698Z,11.00
2019-04-11T00:59:44.675Z,12.82
2019-04-11T01:02:09.391Z,11.28
2019-04-11T01:04:45.348Z,11.08
2019-04-11T01:07:11.314Z,12.55
2019-04-11T01:09:37.484Z,12.07
2019-04-11T01:12:04.633Z,11.63
2019-04-11T01:15:17.875Z,11.75
2019-04-11T01:16:59.182Z,12.68
2019-04-11T01:19:27.536Z,12.58
2019-04-11T01:21:53.667Z,11.75
2019-04-11T01:24:22.408Z,12.10
2019-04-11T01:26:51.777Z,11.97
2019-04-11T01:29:19.561Z,11.50
2019-04-11T01:31:47.826Z,11.28
2019-04-11T01:34:20.240Z,11.95
2019-04-11T01:36:49.436Z,11.78
2019-04-11T01:39:21.842Z,12.20
2019-04-11T01:41:48.866Z,12.43
2019-04-11T01:44:22.743Z,12.53
2019-04-11T01:46:46.491Z,9.68
2019-04-11T01:49:18.480Z,12.45
2019-04-11T01:51:45.550Z,12.18
2019-04-11T01:54:13.572Z,12.10
2019-04-11T01:56:41.093Z,11.93
2019-04-11T01:59:07.995Z,12.10
2019-04-11T02:01:54.885Z,12.73
2019-04-11T02:04:26.131Z,12.20
2019-04-11T02:06:54.485Z,13.22
2019-04-11T02:09:22.023Z,11.68
2019-04-11T02:11:50.187Z,12.68
2019-04-11T02:14:21.468Z,13.30
2019-04-11T02:16:55.685Z,12.40
2019-04-11T02:19:28.609Z,11.97
2019-04-11T02:21:58.556Z,12.53
2019-04-11T02:24:37.672Z,11.63
2019-04-11T02:27:21.170Z,12.43
2019-04-11T02:29:48.881Z,12.40
2019-04-11T02:32:15.764Z,12.43
2019-04-11T02:34:43.909Z,12.65
2019-04-11T02:37:10.336Z,12.50
2019-04-11T02:39:38.494Z,12.47
2019-04-11T02:42:06.348Z,12.20
2019-04-11T02:44:50.930Z,13.18
2019-04-11T02:47:09.848Z,12.33
2019-04-11T02:49:39.349Z,11.85
2019-04-11T02:52:02.961Z,12.07
2019-04-11T02:54:33.863Z,12.07
2019-04-11T02:57:03.606Z,12.82
2019-04-11T02:59:30.516Z,12.18
2019-04-11T03:02:00.463Z,12.65
2019-04-11T03:04:31.142Z,13.03
2019-04-11T03:06:59.854Z,13.20
2019-04-11T03:09:51.049Z,11.70
2019-04-11T03:11:58.936Z,12.60
2019-04-11T03:14:27.734Z,13.03
2019-04-11T03:17:03.649Z,12.58
2019-04-11T03:19:37.562Z,11.97
2019-04-11T03:21:54.303Z,8.98
2019-04-11T03:24:24.452Z,12.35
2019-04-11T03:26:56.552Z,12.95
2019-04-11T03:29:30.903Z,13.58
2019-04-11T03:39:48.760Z,13.85
2019-04-11T03:42:10.953Z,12.43
2019-04-11T03:44:28.612Z,13.05
2019-04-11T03:47:08.415Z,13.35
2019-04-11T03:49:31.735Z,13.22
2019-04-11T03:51:50.735Z,13.80
2019-04-11T03:54:17.999Z,13.35
2019-04-11T04:00:21.607Z,13.32
2019-04-11T04:03:09.048Z,12.90
2019-04-11T04:08:44.464Z,13.10
2019-04-11T04:11:22.168Z,13.35
2019-04-11T04:14:24.978Z,13.98
2019-04-11T04:17:32.981Z,12.35
2019-04-11T04:20:08.759Z,12.75
2019-04-11T04:23:03.177Z,12.80
2019-04-11T04:29:02.145Z,14.40
2019-04-11T04:31:30.633Z,13.58
2019-04-11T04:33:57.737Z,14.05
2019-04-11T04:36:26.744Z,13.93
2019-04-11T04:38:54.560Z,14.03
2019-04-11T04:41:35.127Z,14.65
2019-04-11T04:43:54.695Z,13.58
2019-04-11T04:46:34.853Z,13.75
2019-04-11T04:48:51.294Z,13.70
2019-04-11T04:51:18.339Z,13.62
2019-04-11T04:53:57.728Z,14.68
2019-04-11T04:56:20.244Z,15.08
2019-04-11T04:58:44.369Z,14.65
2019-04-11T05:01:12.515Z,14.80
2019-04-11T05:03:40.436Z,16.07
2019-04-11T05:06:07.709Z,16.07
2019-04-11T05:08:34.761Z,15.03
2019-04-11T05:11:02.181Z,14.95
2019-04-11T05:13:30.019Z,14.83
2019-04-11T05:16:06.865Z,14.87
2019-04-11T05:18:25.657Z,14.93
2019-04-11T05:20:52.734Z,14.53
2019-04-11T05:23:18.927Z,14.18
2019-04-11T05:25:45.204Z,15.70
2019-04-11T05:28:12.041Z,14.98
2019-04-11T05:30:39.835Z,17.20
2019-04-11T05:33:06.104Z,16.52
2019-04-11T05:35:33.006Z,14.78
2019-04-11T05:38:00.394Z,14.90
2019-04-11T05:40:26.481Z,15.78
2019-04-11T05:42:54.134Z,14.43
2019-04-11T05:45:22.572Z,13.83
2019-04-11T05:47:50.917Z,13.98
2019-04-11T05:50:22.164Z,14.78
2019-04-11T05:52:48.399Z,14.03
2019-04-11T05:55:15.519Z,15.08
2019-04-11T05:57:44.769Z,14.90
2019-04-11T06:00:30.951Z,15.53
2019-04-11T06:02:59.669Z,15.72
2019-04-11T06:05:35.481Z,14.53
2019-04-11T06:08:05.445Z,14.90
2019-04-11T06:10:33.871Z,11.83
2019-04-11T06:13:12.066Z,14.53
2019-04-11T06:15:45.813Z,15.28
2019-04-11T06:18:26.224Z,13.68
2019-04-11T06:20:45.002Z,9.90
2019-04-11T06:23:31.827Z,13.25
2019-04-11T06:26:10.458Z,13.48
2019-04-11T06:28:39.135Z,12.78
2019-04-11T06:31:13.775Z,13.62
2019-04-11T06:33:42.858Z,14.18
2019-04-11T06:36:21.005Z,13.32
2019-04-11T06:38:51.998Z,13.55
2019-04-11T06:41:26.328Z,13.05
2019-04-11T06:44:04.703Z,13.48
2019-04-11T06:46:55.788Z,13.60
2019-04-11T06:49:27.060Z,14.23
2019-04-11T06:51:55.164Z,12.33
2019-04-11T06:54:23.376Z,15.25
2019-04-11T06:56:52.099Z,14.20
2019-04-11T06:59:20.640Z,13.25
2019-04-11T07:01:47.576Z,14.58
2019-04-11T07:04:15.668Z,14.78
2019-04-11T07:06:43.930Z,13.50
2019-04-11T07:09:17.632Z,14.20
2019-04-11T07:11:48.573Z,13.22
2019-04-11T07:14:16.654Z,13.70
2019-04-11T07:17:06.900Z,12.78
2019-04-11T07:19:33.800Z,13.40
2019-04-11T07:22:00.298Z,12.63
2019-04-11T07:24:28.337Z,13.90
2019-04-11T07:26:56.466Z,12.68
2019-04-11T07:29:27.286Z,12.85
2019-04-11T07:32:09.385Z,13.43
2019-04-11T07:34:39.669Z,14.00
2019-04-11T07:37:25.994Z,9.73
2019-04-11T07:39:58.473Z,12.75
2019-04-11T07:42:26.667Z,11.55
2019-04-11T07:44:57.689Z,12.18
2019-04-11T07:49:58.209Z,10.60
2019-04-11T07:52:25.226Z,11.18
2019-04-11T07:54:51.490Z,10.43
2019-04-11T07:57:31.834Z,10.75
2019-04-11T08:00:03.765Z,8.13
2019-04-11T08:02:38.154Z,9.33
2019-04-11T08:05:11.080Z,10.50
2019-04-11T08:07:51.866Z,9.93
2019-04-11T08:10:25.901Z,7.67
2019-04-11T08:12:54.110Z,9.30
2019-04-11T08:15:29.337Z,8.63
2019-04-11T08:17:57.541Z,9.50
2019-04-11T08:20:42.288Z,9.63
2019-04-11T08:23:09.720Z,8.78
2019-04-11T08:25:47.386Z,8.60
2019-04-11T08:28:14.628Z,9.10
2019-04-11T08:30:55.190Z,9.68
2019-04-11T08:33:24.549Z,9.68
2019-04-11T08:35:57.165Z,9.65
2019-04-11T08:38:26.597Z,9.60
2019-04-11T08:40:55.487Z,9.15
2019-04-11T08:43:29.578Z,9.83
2019-04-11T08:46:06.881Z,9.35
2019-04-11T08:48:35.208Z,9.38
2019-04-11T08:51:12.525Z,10.23
2019-04-11T08:53:44.713Z,9.53
2019-04-11T08:56:12.880Z,8.93
2019-04-11T08:58:53.140Z,9.45
2019-04-11T09:01:20.735Z,7.10
2019-04-11T09:04:09.218Z,10.05
2019-04-11T09:06:34.847Z,10.35
2019-04-11T09:09:18.807Z,10.08
2019-04-11T09:11:48.829Z,9.28
2019-04-11T09:14:20.029Z,9.85
2019-04-11T09:19:27.254Z,9.80
2019-04-11T09:22:11.000Z,9.78
2019-04-11T09:24:43.134Z,10.60
2019-04-11T09:27:24.792Z,10.35
2019-04-11T09:30:02.555Z,9.75
2019-04-11T09:32:33.765Z,9.58
2019-04-11T09:35:02.066Z,9.73
2019-04-11T09:37:29.547Z,10.32
2019-04-11T09:39:58.049Z,10.32
2019-04-11T09:42:43.120Z,9.75
2019-04-11T09:45:29.816Z,9.80
2019-04-11T09:48:08.367Z,9.63
2019-04-11T09:50:36.645Z,9.80
2019-04-11T09:53:03.628Z,10.43
2019-04-11T09:55:37.770Z,11.57
2019-04-11T09:58:03.939Z,9.68
2019-04-11T10:00:34.958Z,10.53
2019-04-11T10:03:03.005Z,10.88
2019-04-11T10:05:32.024Z,10.25
2019-04-11T10:08:00.135Z,10.90
2019-04-11T10:10:28.912Z,11.22
2019-04-11T10:13:13.952Z,10.85
2019-04-11T10:15:43.180Z,10.30
2019-04-11T10:18:26.046Z,9.53
2019-04-11T10:20:50.856Z,9.75
2019-04-11T10:23:36.721Z,9.30
2019-04-11T10:26:03.597Z,9.50
2019-04-11T10:28:40.334Z,10.60
2019-04-11T10:31:08.575Z,10.10
2019-04-11T10:33:42.827Z,10.55
2019-04-11T10:36:10.922Z,10.78
2019-04-11T10:38:38.970Z,11.03
2019-04-11T10:41:25.228Z,11.48
2019-04-11T10:44:05.565Z,11.40
2019-04-11T10:50:25.730Z,11.83
2019-04-11T10:52:55.071Z,11.18
2019-04-11T10:55:39.877Z,11.83
2019-04-11T10:58:20.629Z,11.57
2019-04-11T11:00:48.849Z,11.75
2019-04-11T11:03:27.358Z,12.15
2019-04-11T11:06:01.466Z,11.97
2019-04-11T11:08:45.976Z,11.85
2019-04-11T11:11:20.549Z,11.55
2019-04-11T11:13:54.513Z,11.60
2019-04-11T11:16:30.570Z,11.48
2019-04-11T11:19:34.623Z,11.03
2019-04-11T11:21:47.322Z,11.70
2019-04-11T11:24:33.860Z,10.65
2019-04-11T11:27:02.953Z,10.48
2019-04-11T11:29:30.077Z,9.38
2019-04-11T11:31:58.143Z,8.45
2019-04-11T11:34:30.437Z,9.05
2019-04-11T11:37:15.837Z,8.63
2019-04-11T11:40:02.722Z,8.40
2019-04-11T11:42:42.789Z,8.90
2019-04-11T11:45:23.617Z,9.03
2019-04-11T11:48:13.652Z,8.00
2019-04-11T11:50:36.545Z,8.50
2019-04-11T11:53:19.125Z,6.10
2019-04-11T11:55:46.225Z,7.80
2019-04-11T11:58:31.118Z,8.00
2019-04-11T12:01:03.666Z,8.45
2019-04-11T12:03:40.506Z,7.37
2019-04-11T12:06:09.767Z,7.42
2019-04-11T12:08:46.659Z,7.65
2019-04-11T12:11:13.720Z,7.37
2019-04-11T12:13:41.795Z,7.50
2019-04-11T12:16:19.063Z,6.83
2019-04-11T12:19:00.943Z,7.30
2019-04-11T12:21:32.112Z,6.53
2019-04-11T12:24:04.298Z,7.10
2019-04-11T12:26:33.317Z,6.65
2019-04-11T12:29:14.298Z,7.30
2019-04-11T12:31:44.014Z,6.65
2019-04-11T12:34:27.656Z,7.53
2019-04-11T12:36:54.694Z,6.47
2019-04-11T12:39:35.864Z,7.17
2019-04-11T12:42:06.824Z,7.08
2019-04-11T12:44:45.838Z,6.90
2019-04-11T12:47:30.798Z,6.92
2019-04-11T12:50:07.903Z,6.60
2019-04-11T12:52:36.062Z,6.67
2019-04-11T12:55:25.380Z,6.72
2019-04-11T12:58:10.314Z,7.10
2019-04-11T13:00:38.679Z,6.55
2019-04-11T13:03:09.988Z,6.20
2019-04-11T13:05:37.949Z,6.62
2019-04-11T13:08:09.338Z,7.30
2019-04-11T13:10:36.557Z,6.75
2019-04-11T13:13:24.860Z,7.28
2019-04-11T13:15:54.629Z,7.12
2019-04-11T13:18:25.617Z,7.22
2019-04-11T13:20:56.310Z,7.03
2019-04-11T13:23:27.461Z,6.40
2019-04-11T13:26:12.219Z,7.70
2019-04-11T13:28:40.181Z,7.80
2019-04-11T13:31:24.832Z,7.92
2019-04-11T13:33:52.970Z,7.53
2019-04-11T13:36:33.003Z,7.65
2019-04-11T13:39:02.470Z,6.85
2019-04-11T13:41:32.161Z,6.45
2019-04-11T13:43:58.951Z,7.17
2019-04-11T13:46:36.148Z,7.12
2019-04-11T13:49:19.702Z,10.03
2019-04-11T13:52:04.542Z,8.20
2019-04-11T13:54:41.334Z,7.50
2019-04-11T13:57:24.522Z,7.42
2019-04-11T14:00:09.544Z,7.17
2019-04-11T14:02:54.704Z,7.22
2019-04-11T14:05:22.026Z,6.83
2019-04-11T14:07:49.301Z,7.60
2019-04-11T14:10:18.882Z,6.95
2019-04-11T14:12:45.759Z,7.33
2019-04-11T14:15:26.429Z,7.30
2019-04-11T14:17:54.615Z,8.30
2019-04-11T14:20:29.712Z,7.22
2019-04-11T14:23:04.436Z,7.55
2019-04-11T14:25:42.225Z,7.55
2019-04-11T14:28:10.257Z,9.05
2019-04-11T14:30:53.488Z,7.60
2019-04-11T14:33:23.588Z,8.08
2019-04-11T14:35:53.010Z,7.78
2019-04-11T14:38:21.167Z,8.10
2019-04-11T14:41:04.898Z,7.97
2019-04-11T14:43:43.749Z,8.38
2019-04-11T14:46:28.915Z,7.80
2019-04-11T14:48:56.382Z,7.70
2019-04-11T14:51:27.488Z,7.58
2019-04-11T14:56:55.897Z,8.43
2019-04-11T14:59:24.955Z,5.97
2019-04-11T15:01:53.558Z,7.50
2019-04-11T15:04:38.287Z,8.10
2019-04-11T15:07:05.374Z,8.73
2019-04-11T15:09:50.279Z,8.95
2019-04-11T15:12:18.448Z,7.80
2019-04-11T15:14:48.537Z,8.40
2019-04-11T15:17:16.473Z,8.03
2019-04-11T15:19:44.537Z,7.87
2019-04-11T15:22:21.824Z,7.80
2019-04-11T15:24:49.896Z,8.18
2019-04-11T15:27:23.660Z,7.50
2019-04-11T15:29:49.840Z,7.50
2019-04-11T15:32:27.274Z,8.20
2019-04-11T15:34:53.997Z,8.00
2019-04-11T15:37:22.561Z,7.97
2019-04-11T15:39:53.483Z,7.60
2019-04-11T15:42:27.671Z,7.83
2019-04-11T15:45:14.062Z,7.53
2019-04-11T15:47:59.017Z,7.97
2019-04-11T15:50:43.653Z,7.60
2019-04-11T15:53:11.639Z,7.45
2019-04-11T15:55:42.855Z,7.75
2019-04-11T16:00:48.709Z,16.25
2019-04-11T16:03:15.041Z,7.25
2019-04-11T16:05:49.259Z,7.70
2019-04-11T16:08:19.117Z,7.70
2019-04-11T16:10:47.258Z,7.97
2019-04-11T16:13:15.289Z,7.17
2019-04-11T16:15:43.435Z,8.50
2019-04-11T16:18:28.290Z,7.40
2019-04-11T16:21:18.346Z,7.25
2019-04-11T16:23:45.981Z,7.58
2019-04-11T16:26:14.173Z,7.62
2019-04-11T16:28:45.264Z,7.42
2019-04-11T16:33:46.892Z,7.47
2019-04-11T16:36:18.054Z,6.80
2019-04-11T16:41:25.038Z,8.00
2019-04-11T16:44:10.040Z,7.55
2019-04-11T16:46:38.116Z,7.47
2019-04-11T16:49:04.526Z,7.83
2019-04-11T16:51:31.428Z,7.72
2019-04-11T16:53:58.067Z,8.00
2019-04-11T16:56:24.316Z,8.63
2019-04-11T16:58:50.530Z,9.28
2019-04-11T17:01:16.927Z,8.40
2019-04-11T17:03:44.089Z,6.90
2019-04-11T17:06:12.494Z,7.83
2019-04-11T17:08:46.574Z,7.42
2019-04-11T17:11:14.715Z,7.60
2019-04-11T17:13:41.223Z,7.10
2019-04-11T17:16:09.542Z,7.55
2019-04-11T17:18:35.896Z,7.37
2019-04-11T17:21:02.294Z,8.25
2019-04-11T17:23:28.915Z,7.90
2019-04-11T17:25:55.239Z,7.83
2019-04-11T17:28:23.052Z,7.87
2019-04-11T17:30:49.738Z,8.30
2019-04-11T17:33:17.159Z,8.20
2019-04-11T17:35:43.659Z,7.45
2019-04-11T17:38:10.066Z,7.85
2019-04-11T17:40:39.426Z,7.05
2019-04-11T17:43:04.628Z,8.18
2019-04-11T17:45:31.454Z,7.30
2019-04-11T17:47:59.275Z,8.08
2019-04-11T17:50:25.662Z,7.62
2019-04-11T17:52:54.404Z,6.97
2019-04-11T17:55:23.612Z,7.05
2019-04-11T17:57:48.426Z,7.05
2019-04-11T18:00:17.275Z,7.10
2019-04-11T18:02:46.278Z,7.00
2019-04-11T18:05:16.697Z,6.70
2019-04-11T18:07:41.541Z,6.60
2019-04-11T18:10:08.329Z,6.05
2019-04-11T18:12:34.625Z,6.47
2019-04-11T18:15:02.327Z,6.25
2019-04-11T18:17:29.593Z,6.28
2019-04-11T18:19:55.885Z,6.70
2019-04-11T18:22:22.166Z,6.20
2019-04-11T18:24:50.207Z,6.72
2019-04-11T18:27:17.096Z,6.28
2019-04-11T18:29:43.353Z,6.03
2019-04-11T18:32:09.721Z,5.90
2019-04-11T18:34:36.113Z,7.17
2019-04-11T18:37:02.738Z,7.42
2019-04-11T18:39:28.859Z,6.97
2019-04-11T18:41:57.555Z,7.37
2019-04-11T18:44:23.115Z,7.08
2019-04-11T18:46:49.370Z,7.12
2019-04-11T18:49:15.572Z,6.72
2019-04-11T18:51:41.889Z,7.03
2019-04-11T18:54:08.104Z,8.05
2019-04-11T18:56:34.399Z,10.93
2019-04-11T18:59:03.449Z,6.45
2019-04-11T19:01:29.021Z,6.12
2019-04-11T19:03:55.216Z,5.08
2019-04-11T19:06:27.749Z,5.97
2019-04-11T19:08:49.691Z,5.55
2019-04-11T19:11:16.363Z,6.42
2019-04-11T19:13:46.737Z,5.25
2019-04-11T19:16:10.973Z,5.20
2019-04-11T19:18:39.409Z,5.80
2019-04-11T19:21:05.763Z,5.67
2019-04-11T19:23:32.009Z,5.05
2019-04-11T19:25:58.234Z,5.10
2019-04-11T19:28:25.214Z,5.00
2019-04-11T19:30:54.024Z,5.33
2019-04-11T19:33:20.224Z,5.40
2019-04-11T19:35:46.560Z,5.33
2019-04-11T19:38:26.195Z,5.97
2019-04-11T19:40:52.620Z,6.67
2019-04-11T19:43:19.641Z,6.62
2019-04-11T19:45:49.837Z,5.50
2019-04-11T19:48:14.102Z,4.95
2019-04-11T19:50:40.368Z,5.25
2019-04-11T19:53:07.545Z,4.60
2019-04-11T19:55:47.690Z,4.58
2019-04-11T19:58:15.625Z,4.47
2019-04-11T20:00:42.000Z,7.83
2019-04-11T20:03:08.959Z,4.75
2019-04-11T20:05:35.678Z,4.60
2019-04-11T20:08:01.958Z,4.78
2019-04-11T20:10:30.611Z,5.60
2019-04-11T20:12:56.343Z,4.92
2019-04-11T20:15:22.610Z,5.10
2019-04-11T20:17:52.029Z,5.12
2019-04-11T20:20:17.024Z,5.08
2019-04-11T20:22:43.238Z,4.92
2019-04-11T20:25:09.622Z,5.47
2019-04-11T20:27:36.076Z,5.05
2019-04-11T20:30:04.818Z,4.95
2019-04-11T20:32:33.160Z,5.03
2019-04-11T20:34:59.653Z,4.80
2019-04-11T20:37:26.070Z,4.62
2019-04-11T20:39:52.375Z,5.30
2019-04-11T20:42:23.793Z,5.03
2019-04-11T20:44:49.487Z,4.97
2019-04-11T20:47:16.891Z,5.00
2019-04-11T20:49:47.852Z,5.33
2019-04-11T20:52:14.358Z,5.40
2019-04-11T20:54:40.633Z,4.95
2019-04-11T20:57:06.944Z,5.12
2019-04-11T20:59:34.877Z,5.20
2019-04-11T21:02:01.430Z,4.70
2019-04-11T21:04:27.762Z,5.40
2019-04-11T21:06:54.035Z,5.75
2019-04-11T21:09:20.249Z,5.50
2019-04-11T21:11:46.421Z,4.80
2019-04-11T21:14:12.633Z,4.87
2019-04-11T21:16:38.810Z,5.12
2019-04-11T21:19:05.066Z,4.95
2019-04-11T21:21:31.284Z,4.95
2019-04-11T21:23:57.941Z,5.12
2019-04-11T21:26:28.745Z,5.10
2019-04-11T21:28:53.836Z,5.55
2019-04-11T21:31:20.111Z,5.17
2019-04-11T21:33:47.285Z,5.10
2019-04-11T21:36:13.494Z,5.53
2019-04-11T21:38:39.658Z,5.15
2019-04-11T21:41:06.670Z,5.40
2019-04-11T21:43:35.936Z,5.25
2019-04-11T21:46:01.235Z,5.62
2019-04-11T21:48:27.352Z,5.35
2019-04-11T21:50:53.706Z,5.45
2019-04-11T21:53:19.809Z,5.97
2019-04-11T21:55:47.695Z,5.72
2019-04-11T21:58:14.195Z,5.47
2019-04-11T22:00:44.823Z,5.90
2019-04-11T22:03:12.950Z,5.10
2019-04-11T22:05:39.353Z,5.15
2019-04-11T22:08:05.550Z,5.72
2019-04-11T22:10:31.964Z,5.42
2019-04-11T22:12:58.343Z,5.42
2019-04-11T22:15:24.547Z,5.03
2019-04-11T22:17:50.660Z,5.05
2019-04-11T22:20:17.418Z,5.62
2019-04-11T22:22:43.731Z,4.97
2019-04-11T22:25:10.068Z,5.33
2019-04-11T22:27:36.164Z,5.22
2019-04-11T22:30:05.948Z,5.33
2019-04-11T22:32:32.142Z,5.12
2019-04-11T22:34:59.208Z,5.50
2019-04-11T22:37:27.735Z,5.87
2019-04-11T22:39:54.270Z,5.42
2019-04-11T22:42:20.482Z,6.05
2019-04-11T22:44:46.665Z,5.40
2019-04-11T22:47:12.944Z,5.58
2019-04-11T22:49:39.954Z,5.40
2019-04-11T22:52:06.518Z,5.60
2019-04-11T22:54:32.677Z,5.28
2019-04-11T22:56:59.025Z,5.62
2019-04-11T22:59:25.232Z,4.87
2019-04-11T23:01:53.166Z,5.12
2019-04-11T23:04:19.310Z,5.45
2019-04-11T23:06:47.118Z,5.17
2019-04-11T23:09:13.757Z,5.40
2019-04-11T23:11:39.979Z,5.10
2019-04-11T23:14:06.061Z,5.47
2019-04-11T23:16:32.280Z,5.80
2019-04-11T23:18:59.425Z,5.40
2019-04-11T23:21:25.635Z,5.45
2019-04-11T23:23:51.785Z,5.53
2019-04-11T23:26:18.009Z,5.25
2019-04-11T23:28:46.906Z,5.60
2019-04-11T23:31:13.592Z,6.15
2019-04-11T23:33:39.735Z,5.53
2019-04-11T23:36:05.999Z,5.50
2019-04-11T23:38:32.357Z,6.10
2019-04-11T23:40:58.534Z,6.05
2019-04-11T23:43:24.804Z,5.95
2019-04-11T23:45:51.736Z,5.53
2019-04-11T23:48:18.037Z,5.62
2019-04-11T23:50:44.314Z,5.95
2019-04-11T23:53:10.425Z,6.10
2019-04-11T23:55:36.641Z,5.72
2019-04-11T23:58:02.896Z,6.70
